createdAt,value
2018-12-27T00:00:01.038Z,89.59
2018-12-27T00:02:29.036Z,90.11
2018-12-27T00:04:57.114Z,89.73
2018-12-27T00:07:25.441Z,90.27
2018-12-27T00:09:54.251Z,89.35
2018-12-27T00:12:22.676Z,89.69
2018-12-27T00:14:51.128Z,90.55
2018-12-27T00:17:19.468Z,87.62
2018-12-27T00:19:47.426Z,87.76
2018-12-27T00:22:15.497Z,88.60
2018-12-27T00:24:43.766Z,89.84
2018-12-27T00:27:14.434Z,89.68
2018-12-27T00:29:42.580Z,89.51
2018-12-27T00:32:10.617Z,89.31
2018-12-27T00:34:38.646Z,89.92
2018-12-27T00:37:06.690Z,89.45
2018-12-27T00:39:35.113Z,89.57
2018-12-27T00:42:03.231Z,88.99
2018-12-27T00:44:31.408Z,88.17
2018-12-27T00:46:59.673Z,88.59
2018-12-27T00:49:28.162Z,88.08
2018-12-27T00:51:56.380Z,89.63
2018-12-27T00:54:24.818Z,89.68
2018-12-27T00:56:53.098Z,89.30
2018-12-27T00:59:21.497Z,88.20
2018-12-27T01:01:49.546Z,89.26
2018-12-27T01:04:17.785Z,88.93
2018-12-27T01:06:45.720Z,87.18
2018-12-27T01:09:14.005Z,87.12
2018-12-27T01:11:42.445Z,88.56
2018-12-27T01:14:10.547Z,88.15
2018-12-27T01:16:38.621Z,86.71
2018-12-27T01:19:06.825Z,86.06
2018-12-27T01:21:35.040Z,88.10
2018-12-27T01:24:03.871Z,88.70
2018-12-27T01:26:32.069Z,88.86
2018-12-27T01:29:00.990Z,88.53
2018-12-27T01:31:29.234Z,87.65
2018-12-27T01:33:57.513Z,86.29
2018-12-27T01:36:25.498Z,85.83
2018-12-27T01:38:53.973Z,86.29
2018-12-27T01:41:21.971Z,86.81
2018-12-27T01:43:49.984Z,87.06
2018-12-27T01:46:18.389Z,87.45
2018-12-27T01:48:46.463Z,89.26
2018-12-27T01:51:14.411Z,87.43
2018-12-27T01:53:42.403Z,87.35
2018-12-27T01:56:10.396Z,88.88
2018-12-27T01:58:38.763Z,88.18
2018-12-27T02:01:07.034Z,87.76
2018-12-27T02:03:35.205Z,88.12
2018-12-27T02:06:03.644Z,88.17
2018-12-27T02:08:32.005Z,89.67
2018-12-27T02:10:59.991Z,89.54
2018-12-27T02:13:28.002Z,89.25
2018-12-27T02:15:56.242Z,89.59
2018-12-27T02:18:24.555Z,89.75
2018-12-27T02:20:52.606Z,89.90
2018-12-27T02:23:21.372Z,90.49
2018-12-27T02:25:49.509Z,90.42
2018-12-27T02:28:17.514Z,90.33
2018-12-27T02:30:45.503Z,89.83
2018-12-27T02:33:14.005Z,89.51
2018-12-27T02:35:42.100Z,89.44
2018-12-27T02:38:10.286Z,88.67
2018-12-27T02:40:38.301Z,88.55
2018-12-27T02:43:06.478Z,87.42
2018-12-27T02:45:34.512Z,87.74
2018-12-27T02:48:03.065Z,87.97
2018-12-27T02:50:31.062Z,88.04
2018-12-27T02:52:59.167Z,89.06
2018-12-27T02:55:27.458Z,88.58
2018-12-27T02:57:55.618Z,87.62
2018-12-27T03:00:24.368Z,87.51
2018-12-27T03:02:52.648Z,88.27
2018-12-27T03:05:20.625Z,87.15
2018-12-27T03:07:48.921Z,89.26
2018-12-27T03:10:16.979Z,89.50
2018-12-27T03:12:45.403Z,88.86
2018-12-27T03:15:13.732Z,88.37
2018-12-27T03:17:42.002Z,88.64
2018-12-27T03:20:09.976Z,88.21
2018-12-27T03:22:37.931Z,88.19
2018-12-27T03:25:06.330Z,89.13
2018-12-27T03:27:34.561Z,89.48
2018-12-27T03:30:02.955Z,90.44
2018-12-27T03:32:31.392Z,89.75
2018-12-27T03:34:59.398Z,88.73
2018-12-27T03:37:27.640Z,87.89
2018-12-27T03:39:55.667Z,87.19
2018-12-27T03:42:23.916Z,89.11
2018-12-27T03:44:52.141Z,87.92
2018-12-27T03:47:20.259Z,88.48
2018-12-27T03:49:48.782Z,89.02
2018-12-27T03:52:16.714Z,88.97
2018-12-27T03:54:44.942Z,89.00
2018-12-27T03:57:13.237Z,88.89
2018-12-27T03:59:41.549Z,88.51
2018-12-27T04:02:09.859Z,88.96
2018-12-27T04:04:37.923Z,88.17
2018-12-27T04:07:06.072Z,90.08
2018-12-27T04:09:34.019Z,89.69
2018-12-27T04:12:02.033Z,89.96
2018-12-27T04:14:30.297Z,89.60
2018-12-27T04:16:58.528Z,89.09
2018-12-27T04:19:27.184Z,89.23
2018-12-27T04:21:55.603Z,90.34
2018-12-27T04:24:24.128Z,90.12
2018-12-27T04:26:52.365Z,90.01
2018-12-27T04:29:22.051Z,90.12
2018-12-27T04:31:50.357Z,90.02
2018-12-27T04:34:19.548Z,89.66
2018-12-27T04:36:47.501Z,89.00
2018-12-27T04:39:15.487Z,89.25
2018-12-27T04:41:43.583Z,89.20
2018-12-27T04:44:11.523Z,90.67
2018-12-27T04:46:39.861Z,89.89
2018-12-27T04:49:07.963Z,89.53
2018-12-27T04:51:35.971Z,89.79
2018-12-27T04:54:03.966Z,89.99
2018-12-27T04:56:32.203Z,91.15
2018-12-27T04:59:00.428Z,91.17
2018-12-27T05:01:28.553Z,91.37
2018-12-27T05:03:56.873Z,90.89
2018-12-27T05:06:25.312Z,91.01
2018-12-27T05:08:53.366Z,91.63
2018-12-27T05:11:21.998Z,92.12
2018-12-27T05:13:50.014Z,91.49
2018-12-27T05:16:18.326Z,91.37
2018-12-27T05:18:46.705Z,90.51
2018-12-27T05:21:14.821Z,90.81
2018-12-27T05:23:43.136Z,90.61
2018-12-27T05:26:11.256Z,91.15
2018-12-27T05:28:41.440Z,91.75
2018-12-27T05:31:10.279Z,91.56
2018-12-27T05:33:38.343Z,91.59
2018-12-27T05:36:06.892Z,91.60
2018-12-27T05:38:35.109Z,91.55
2018-12-27T05:41:03.136Z,91.09
2018-12-27T05:43:31.298Z,88.85
2018-12-27T05:45:59.640Z,89.80
2018-12-27T05:48:27.819Z,89.84
2018-12-27T05:50:56.026Z,88.79
2018-12-27T05:53:24.064Z,88.50
2018-12-27T05:55:52.695Z,88.65
2018-12-27T05:58:21.512Z,88.47
2018-12-27T06:00:49.728Z,88.83
2018-12-27T06:03:18.304Z,87.61
2018-12-27T06:05:46.280Z,88.57
2018-12-27T06:08:14.340Z,87.57
2018-12-27T06:10:42.340Z,85.55
2018-12-27T06:13:11.396Z,84.55
2018-12-27T06:15:40.127Z,84.00
2018-12-27T06:18:08.992Z,84.76
2018-12-27T06:20:39.438Z,85.24
2018-12-27T06:23:08.293Z,87.22
2018-12-27T06:25:38.249Z,86.70
2018-12-27T06:28:07.418Z,87.01
2018-12-27T06:30:35.517Z,86.84
2018-12-27T06:33:04.002Z,86.77
2018-12-27T06:35:32.598Z,88.50
2018-12-27T06:38:00.675Z,89.00
2018-12-27T06:40:28.598Z,87.51
2018-12-27T06:42:56.733Z,87.81
2018-12-27T06:45:26.682Z,86.45
2018-12-27T06:47:54.690Z,87.46
2018-12-27T06:50:22.720Z,88.28
2018-12-27T06:52:51.026Z,87.92
2018-12-27T06:55:19.049Z,88.04
2018-12-27T06:57:47.209Z,88.29
2018-12-27T07:00:15.628Z,88.38
2018-12-27T07:02:44.008Z,88.12
2018-12-27T07:05:11.977Z,88.14
2018-12-27T07:07:41.019Z,88.80
2018-12-27T07:10:09.166Z,89.86
2018-12-27T07:12:37.402Z,89.76
2018-12-27T07:15:05.740Z,89.39
2018-12-27T07:17:35.438Z,89.07
2018-12-27T07:20:05.607Z,89.21
2018-12-27T07:22:33.935Z,88.78
2018-12-27T07:25:01.910Z,89.62
2018-12-27T07:27:30.181Z,89.30
2018-12-27T07:29:58.162Z,89.68
2018-12-27T07:32:26.366Z,89.93
2018-12-27T07:34:56.695Z,89.68
2018-12-27T07:37:24.384Z,87.56
2018-12-27T07:39:52.365Z,87.09
2018-12-27T07:42:20.775Z,87.01
2018-12-27T07:44:50.752Z,87.07
2018-12-27T07:47:18.803Z,86.91
2018-12-27T07:49:47.603Z,87.25
2018-12-27T07:52:15.744Z,87.67
2018-12-27T07:54:45.305Z,88.54
2018-12-27T07:57:13.606Z,86.37
2018-12-27T07:59:41.650Z,87.07
2018-12-27T08:02:09.781Z,86.41
2018-12-27T08:04:37.795Z,84.84
2018-12-27T08:07:06.119Z,85.26
2018-12-27T08:09:34.552Z,84.68
2018-12-27T08:12:02.767Z,82.75
2018-12-27T08:14:30.884Z,81.33
2018-12-27T08:16:59.222Z,79.99
2018-12-27T08:19:27.222Z,79.93
2018-12-27T08:21:55.428Z,79.45
2018-12-27T08:24:23.908Z,78.80
2018-12-27T08:26:52.194Z,79.54
2018-12-27T08:29:20.631Z,79.32
2018-12-27T08:31:48.615Z,77.49
2018-12-27T08:34:16.705Z,78.92
2018-12-27T08:36:44.720Z,78.76
2018-12-27T08:39:13.104Z,77.64
2018-12-27T08:41:41.323Z,78.00
2018-12-27T08:44:09.350Z,77.15
2018-12-27T08:46:38.058Z,77.39
2018-12-27T08:49:06.453Z,76.04
2018-12-27T08:51:34.727Z,76.93
2018-12-27T08:54:02.979Z,75.71
2018-12-27T08:56:31.696Z,76.49
2018-12-27T08:59:00.103Z,75.63
2018-12-27T09:01:28.218Z,75.24
2018-12-27T09:03:56.393Z,76.40
2018-12-27T09:06:24.874Z,76.26
2018-12-27T09:08:56.763Z,75.38
2018-12-27T09:11:24.916Z,76.38
2018-12-27T09:13:53.324Z,75.19
2018-12-27T09:16:21.958Z,76.21
2018-12-27T09:18:50.239Z,76.94
2018-12-27T09:21:18.964Z,78.01
2018-12-27T09:23:47.253Z,77.25
2018-12-27T09:26:15.542Z,75.35
2018-12-27T09:28:44.360Z,75.50
2018-12-27T09:31:12.319Z,74.57
2018-12-27T09:33:40.535Z,74.60
2018-12-27T09:36:08.534Z,74.46
2018-12-27T09:38:37.167Z,76.82
2018-12-27T09:41:05.186Z,74.94
2018-12-27T09:43:33.438Z,74.33
2018-12-27T09:46:01.419Z,73.36
2018-12-27T09:48:30.030Z,74.17
2018-12-27T09:50:58.876Z,76.28
2018-12-27T09:53:29.438Z,75.78
2018-12-27T09:55:57.964Z,75.00
2018-12-27T09:58:26.067Z,73.35
2018-12-27T10:00:54.642Z,72.91
2018-12-27T10:03:22.669Z,75.54
2018-12-27T10:05:50.931Z,73.87
2018-12-27T10:08:19.344Z,73.41
2018-12-27T10:10:47.562Z,73.06
2018-12-27T10:13:16.728Z,72.17
2018-12-27T10:15:45.080Z,71.11
2018-12-27T10:18:13.488Z,71.48
2018-12-27T10:20:41.585Z,72.77
2018-12-27T10:23:10.016Z,71.94
2018-12-27T10:25:38.290Z,72.64
2018-12-27T10:28:06.686Z,74.78
2018-12-27T10:30:34.883Z,74.53
2018-12-27T10:33:03.156Z,71.31
2018-12-27T10:35:31.514Z,70.29
2018-12-27T10:38:01.853Z,70.72
2018-12-27T10:40:30.165Z,74.55
2018-12-27T10:43:00.661Z,73.56
2018-12-27T10:45:29.162Z,72.92
2018-12-27T10:47:57.762Z,73.35
2018-12-27T10:50:26.063Z,71.90
2018-12-27T10:53:00.253Z,73.04
2018-12-27T10:55:29.492Z,72.97
2018-12-27T10:57:57.768Z,71.57
2018-12-27T11:00:25.807Z,73.18
2018-12-27T11:02:54.243Z,72.09
2018-12-27T11:05:22.243Z,70.90
2018-12-27T11:07:50.361Z,69.00
2018-12-27T11:10:19.146Z,68.37
2018-12-27T11:12:47.792Z,69.58
2018-12-27T11:15:15.899Z,69.39
2018-12-27T11:17:43.983Z,69.39
2018-12-27T11:20:12.611Z,68.98
2018-12-27T11:22:41.102Z,70.04
2018-12-27T11:25:09.374Z,70.37
2018-12-27T11:27:40.147Z,69.78
2018-12-27T11:30:08.652Z,69.19
2018-12-27T11:32:37.348Z,69.86
2018-12-27T11:35:05.645Z,67.31
2018-12-27T11:37:33.773Z,66.73
2018-12-27T11:40:02.527Z,67.11
2018-12-27T11:42:31.002Z,64.90
2018-12-27T11:44:59.422Z,64.45
2018-12-27T11:47:27.689Z,65.02
2018-12-27T11:49:55.700Z,64.26
2018-12-27T11:52:23.863Z,63.25
2018-12-27T11:54:52.358Z,64.30
2018-12-27T11:57:20.726Z,64.85
2018-12-27T11:59:49.210Z,65.66
2018-12-27T12:02:17.317Z,64.61
2018-12-27T12:04:45.900Z,65.12
2018-12-27T12:07:14.104Z,63.09
2018-12-27T12:09:42.386Z,63.85
2018-12-27T12:12:10.629Z,64.16
2018-12-27T12:14:39.189Z,64.13
2018-12-27T12:17:13.644Z,63.84
2018-12-27T12:19:41.910Z,62.02
2018-12-27T12:22:09.892Z,61.42
2018-12-27T12:24:37.917Z,60.37
2018-12-27T12:27:07.082Z,60.14
2018-12-27T12:29:35.571Z,60.65
2018-12-27T12:32:03.820Z,60.25
2018-12-27T12:34:32.213Z,59.72
2018-12-27T12:37:00.352Z,61.30
2018-12-27T12:39:29.954Z,62.99
2018-12-27T12:41:58.151Z,64.36
2018-12-27T12:44:26.929Z,63.20
2018-12-27T12:46:54.982Z,62.91
2018-12-27T12:49:23.083Z,62.71
2018-12-27T12:51:51.090Z,62.99
2018-12-27T12:54:19.073Z,63.05
2018-12-27T12:56:47.178Z,64.33
2018-12-27T12:59:15.292Z,63.00
2018-12-27T13:01:43.697Z,60.96
2018-12-27T13:04:12.138Z,60.35
2018-12-27T13:06:40.464Z,58.73
2018-12-27T13:09:12.006Z,57.01
2018-12-27T13:11:40.425Z,56.92
2018-12-27T13:14:08.832Z,56.93
2018-12-27T13:16:37.142Z,54.90
2018-12-27T13:19:05.460Z,50.22
2018-12-27T13:21:34.471Z,48.20
2018-12-27T13:24:03.337Z,51.25
2018-12-27T13:26:32.258Z,50.94
2018-12-27T13:29:01.120Z,50.07
2018-12-27T13:31:29.684Z,53.23
2018-12-27T13:33:58.297Z,51.70
2018-12-27T13:36:26.386Z,51.62
2018-12-27T13:38:55.501Z,53.39
2018-12-27T13:41:23.976Z,54.22
2018-12-27T13:43:52.602Z,54.25
2018-12-27T13:46:20.992Z,54.29
2018-12-27T13:48:49.108Z,54.83
2018-12-27T13:51:17.241Z,55.22
2018-12-27T13:53:45.331Z,55.39
2018-12-27T13:56:15.211Z,56.49
2018-12-27T13:58:43.719Z,56.33
2018-12-27T14:01:13.954Z,56.33
2018-12-27T14:03:42.497Z,57.00
2018-12-27T14:06:10.851Z,57.99
2018-12-27T14:08:39.035Z,57.84
2018-12-27T14:11:07.230Z,59.85
2018-12-27T14:13:38.335Z,60.99
2018-12-27T14:16:06.752Z,61.41
2018-12-27T14:18:35.127Z,61.25
2018-12-27T14:21:03.322Z,61.06
2018-12-27T14:23:31.721Z,62.78
2018-12-27T14:26:00.473Z,63.16
2018-12-27T14:28:28.838Z,63.58
2018-12-27T14:30:56.955Z,63.69
2018-12-27T14:33:25.057Z,64.29
2018-12-27T14:35:53.123Z,63.61
2018-12-27T14:38:22.462Z,62.95
2018-12-27T14:40:50.757Z,64.51
2018-12-27T14:43:18.903Z,66.34
2018-12-27T14:45:47.229Z,66.71
2018-12-27T14:48:15.448Z,66.60
2018-12-27T14:50:44.617Z,67.80
2018-12-27T14:53:15.926Z,68.63
2018-12-27T14:55:44.544Z,69.09
2018-12-27T14:58:13.009Z,69.77
2018-12-27T15:00:41.662Z,70.79
2018-12-27T15:03:12.018Z,72.21
2018-12-27T15:05:40.331Z,73.25
2018-12-27T15:08:08.539Z,73.04
2018-12-27T15:10:37.053Z,73.93
2018-12-27T15:13:05.877Z,75.14
2018-12-27T15:15:34.109Z,74.83
2018-12-27T15:18:02.489Z,75.57
2018-12-27T15:20:30.859Z,76.47
2018-12-27T15:22:58.901Z,76.89
2018-12-27T15:25:27.651Z,77.40
2018-12-27T15:27:56.190Z,77.32
2018-12-27T15:30:25.708Z,77.77
2018-12-27T15:32:53.967Z,78.54
2018-12-27T15:35:22.398Z,79.02
2018-12-27T15:37:51.175Z,79.37
2018-12-27T15:40:19.306Z,80.44
2018-12-27T15:42:47.479Z,80.79
2018-12-27T15:45:15.548Z,80.75
2018-12-27T15:47:43.823Z,80.83
2018-12-27T15:50:12.345Z,81.18
2018-12-27T15:52:40.851Z,81.72
2018-12-27T15:55:09.706Z,82.45
2018-12-27T15:57:37.883Z,82.34
2018-12-27T16:00:07.084Z,82.18
2018-12-27T16:02:35.143Z,82.43
2018-12-27T16:05:03.613Z,82.80
2018-12-27T16:07:32.125Z,82.93
2018-12-27T16:10:00.734Z,82.99
2018-12-27T16:12:28.949Z,83.67
2018-12-27T16:14:57.226Z,83.20
2018-12-27T16:17:26.985Z,83.54
2018-12-27T16:19:55.326Z,83.74
2018-12-27T16:22:23.699Z,83.89
2018-12-27T16:24:51.966Z,84.30
2018-12-27T16:27:39.081Z,84.05
2018-12-27T16:48:16.168Z,84.94
2018-12-27T16:50:44.300Z,85.12
2018-12-27T16:53:12.755Z,85.06
2018-12-27T16:55:40.936Z,85.00
2018-12-27T16:58:10.070Z,85.19
2018-12-27T17:00:38.117Z,84.80
2018-12-27T17:03:06.401Z,84.95
2018-12-27T17:05:34.395Z,84.92
2018-12-27T17:08:03.022Z,84.62
2018-12-27T17:10:31.278Z,85.40
2018-12-27T17:12:59.359Z,85.45
2018-12-27T17:15:27.945Z,85.50
2018-12-27T17:17:56.390Z,84.86
2018-12-27T17:20:24.751Z,84.88
2018-12-27T17:22:52.911Z,85.07
2018-12-27T17:25:20.988Z,85.57
2018-12-27T17:27:49.056Z,85.94
2018-12-27T17:30:17.613Z,86.13
2018-12-27T17:32:45.761Z,86.41
2018-12-27T17:35:20.602Z,87.06
2018-12-27T17:37:50.207Z,86.98
2018-12-27T17:40:18.498Z,86.90
2018-12-27T17:42:46.523Z,86.91
2018-12-27T17:45:14.754Z,86.91
2018-12-27T17:47:42.926Z,87.15
2018-12-27T17:50:16.872Z,86.85
2018-12-27T17:52:52.158Z,87.25
2018-12-27T17:55:20.831Z,87.87
2018-12-27T17:57:49.790Z,87.30
2018-12-27T18:00:46.229Z,86.94
2018-12-27T18:03:15.766Z,86.61
2018-12-27T18:05:45.200Z,86.52
2018-12-27T18:08:14.124Z,86.71
2018-12-27T18:31:10.486Z,86.22
2018-12-27T18:33:39.388Z,87.09
2018-12-27T18:36:09.104Z,87.80
2018-12-27T18:38:37.652Z,88.50
2018-12-27T18:41:07.240Z,88.25
2018-12-27T18:43:36.113Z,87.95
2018-12-27T18:46:04.212Z,87.56
2018-12-27T18:48:32.287Z,87.84
2018-12-27T18:51:00.560Z,87.32
2018-12-27T18:53:29.425Z,86.88
2018-12-27T18:55:57.663Z,86.59
2018-12-27T18:58:25.671Z,86.29
2018-12-27T19:00:53.773Z,86.24
2018-12-27T19:03:21.834Z,86.62
2018-12-27T19:05:49.879Z,86.30
2018-12-27T19:08:18.266Z,85.85
2018-12-27T19:11:43.087Z,85.84
2018-12-27T19:14:11.427Z,84.83
2018-12-27T19:16:39.457Z,89.26
2018-12-27T19:19:07.457Z,89.26
